Terminal Aerodrome Forecast
Issued by NWS Wakefield, VA

Home | Current Version | Previous Version | Text Only | Print | Product List | Glossary On
Versions: 1 2 3 4 5 6 7 8 9 10 11 12 13 14 15 16 17 18 19 20 21 22 23 24 25 26 27 28 29 30
000
FTUS41 KAKQ 050800 AAA
TAFSBY
TAF AMD
KSBY 050808Z 0508/0606 36010G17KT 3SM -RA BR OVC005
     FM051300 01012G20KT 1/2SM SN FG OVC003
     FM051900 35010KT 1/2SM SN FG OVC003
     FM060100 36014KT 4SM BR OVC007=

USA.gov is the U.S. government's official web portal to all federal, state and local government web resources and services.